createdAt,value
2022-07-29T00:00:03.388Z,-36.00
2022-07-29T00:05:10.681Z,-36.00
2022-07-29T00:10:17.867Z,-36.00
2022-07-29T00:15:25.054Z,-36.00
2022-07-29T00:20:32.274Z,-36.00
2022-07-29T00:25:39.550Z,-36.00
2022-07-29T00:30:47.162Z,-36.00
2022-07-29T00:35:54.389Z,-36.00
2022-07-29T00:41:01.650Z,-36.00
2022-07-29T00:46:08.929Z,-36.00
2022-07-29T00:51:16.177Z,-36.00
2022-07-29T00:56:23.415Z,-36.00
2022-07-29T01:01:30.710Z,-36.00
2022-07-29T01:06:37.900Z,-36.00
2022-07-29T01:11:45.126Z,-36.00
2022-07-29T01:16:52.367Z,-36.00
2022-07-29T01:21:59.550Z,-36.00
2022-07-29T01:27:06.719Z,-36.00
2022-07-29T01:32:27.329Z,-36.00
2022-07-29T01:37:21.211Z,-36.00
2022-07-29T01:42:28.445Z,-36.00
2022-07-29T01:47:35.820Z,-36.00
2022-07-29T01:52:42.856Z,-36.00
2022-07-29T01:57:50.055Z,-36.00
2022-07-29T02:02:57.215Z,-36.00
2022-07-29T02:08:04.467Z,-36.00
2022-07-29T02:13:11.720Z,-36.00
2022-07-29T02:18:18.973Z,-36.00
2022-07-29T02:23:26.169Z,-36.00
2022-07-29T02:28:33.358Z,-36.00
2022-07-29T02:33:40.562Z,-36.00
2022-07-29T02:38:47.821Z,-36.00
2022-07-29T02:43:54.988Z,-36.00
2022-07-29T02:49:02.310Z,-36.00
2022-07-29T02:54:09.470Z,-36.00
2022-07-29T02:59:16.657Z,-36.00
2022-07-29T03:04:23.892Z,-36.00
2022-07-29T03:09:31.097Z,-36.00
2022-07-29T03:14:38.313Z,-36.00
2022-07-29T03:19:45.543Z,-36.00
2022-07-29T03:24:55.015Z,-36.00
2022-07-29T03:30:02.175Z,0.00
2022-07-29T03:35:09.409Z,72.00
2022-07-29T03:40:16.598Z,180.00
2022-07-29T03:45:23.828Z,324.00
2022-07-29T03:50:31.037Z,828.00
2022-07-29T03:55:38.321Z,1584.00
2022-07-29T04:00:45.520Z,2664.00
2022-07-29T04:05:52.789Z,4248.00
2022-07-29T04:11:00.124Z,4608.00
2022-07-29T04:16:07.489Z,4860.00
2022-07-29T04:21:14.588Z,6048.00
2022-07-29T04:26:21.867Z,5004.00
2022-07-29T04:31:29.103Z,4968.00
2022-07-29T04:36:36.290Z,7524.00
2022-07-29T04:41:43.517Z,7272.00
2022-07-29T04:46:50.752Z,10548.00
2022-07-29T04:51:57.949Z,10836.00
2022-07-29T04:57:05.102Z,11376.00
2022-07-29T05:02:12.399Z,10836.00
2022-07-29T05:07:19.586Z,9720.00
2022-07-29T05:12:26.816Z,9144.00
2022-07-29T05:17:34.069Z,10548.00
2022-07-29T05:22:41.272Z,13644.00
2022-07-29T05:27:48.550Z,15624.00
2022-07-29T05:32:55.853Z,13320.00
2022-07-29T05:38:03.114Z,13644.00
2022-07-29T05:43:10.315Z,11160.00
2022-07-29T05:48:17.501Z,9072.00
2022-07-29T05:53:24.737Z,8100.00
2022-07-29T05:58:31.932Z,8856.00
2022-07-29T06:03:39.140Z,9072.00
2022-07-29T06:08:46.398Z,7128.00
2022-07-29T06:13:53.645Z,8208.00
2022-07-29T06:19:00.886Z,8100.00
2022-07-29T06:24:08.095Z,9360.00
2022-07-29T06:29:15.298Z,12276.00
2022-07-29T06:34:22.516Z,12852.00
2022-07-29T06:39:29.762Z,14508.00
2022-07-29T06:44:37.017Z,19188.00
2022-07-29T06:49:44.227Z,21024.00
2022-07-29T06:54:51.523Z,22860.00
2022-07-29T06:59:58.667Z,23652.00
2022-07-29T07:05:05.864Z,23688.00
2022-07-29T07:10:13.070Z,22428.00
2022-07-29T07:15:20.240Z,23472.00
2022-07-29T07:20:27.409Z,24480.00
2022-07-29T07:25:34.590Z,25524.00
2022-07-29T07:30:41.807Z,26136.00
2022-07-29T07:35:49.048Z,26460.00
2022-07-29T07:40:56.326Z,24984.00
2022-07-29T07:46:03.984Z,23328.00
2022-07-29T07:51:11.161Z,22104.00
2022-07-29T07:56:18.369Z,18756.00
2022-07-29T08:01:25.800Z,12564.00
2022-07-29T08:06:32.798Z,12996.00
2022-07-29T08:11:40.054Z,14760.00
2022-07-29T08:16:47.251Z,13284.00
2022-07-29T08:21:55.143Z,13356.00
2022-07-29T08:27:01.625Z,13104.00
2022-07-29T08:32:08.867Z,13896.00
2022-07-29T08:37:16.041Z,14364.00
2022-07-29T08:42:23.268Z,15228.00
2022-07-29T08:47:30.520Z,20520.00
2022-07-29T08:52:37.751Z,24336.00
2022-07-29T08:57:51.000Z,24552.00
2022-07-29T09:02:52.212Z,17820.00
2022-07-29T09:07:59.405Z,13788.00
2022-07-29T09:13:06.683Z,16200.00
2022-07-29T09:18:20.382Z,17316.00
2022-07-29T09:23:23.017Z,19440.00
2022-07-29T09:28:28.276Z,23436.00
2022-07-29T09:33:35.570Z,19332.00
2022-07-29T09:38:42.708Z,23868.00
2022-07-29T09:43:49.881Z,23652.00
2022-07-29T09:48:57.116Z,22536.00
2022-07-29T09:54:04.282Z,24624.00
2022-07-29T09:59:11.468Z,22932.00
2022-07-29T10:04:18.693Z,21852.00
2022-07-29T10:09:25.935Z,24264.00
2022-07-29T10:14:33.249Z,25884.00
2022-07-29T10:19:40.536Z,25524.00
2022-07-29T10:24:47.854Z,26856.00
2022-07-29T10:29:55.123Z,26748.00
2022-07-29T10:35:02.418Z,27036.00
2022-07-29T10:40:09.659Z,27144.00
2022-07-29T10:45:17.225Z,27036.00
2022-07-29T10:50:25.428Z,27468.00
2022-07-29T10:55:32.619Z,27396.00
2022-07-29T11:00:40.011Z,27288.00
2022-07-29T11:05:47.113Z,27468.00
2022-07-29T11:10:54.355Z,26604.00
2022-07-29T11:16:01.648Z,22536.00
2022-07-29T11:21:08.930Z,20052.00
2022-07-29T11:26:18.778Z,19152.00
2022-07-29T11:31:23.401Z,19368.00
2022-07-29T11:36:30.553Z,19728.00
2022-07-29T11:41:37.762Z,19044.00
2022-07-29T11:46:44.959Z,19368.00
2022-07-29T11:51:52.149Z,19800.00
2022-07-29T11:56:59.341Z,20304.00
2022-07-29T12:02:36.594Z,21744.00
2022-07-29T12:07:15.585Z,21456.00
2022-07-29T12:12:22.028Z,21888.00
2022-07-29T12:17:30.665Z,26460.00
2022-07-29T12:22:36.488Z,25812.00
2022-07-29T12:27:43.752Z,26712.00
2022-07-29T12:32:50.953Z,26676.00
2022-07-29T12:37:58.226Z,24984.00
2022-07-29T12:43:05.421Z,25416.00
2022-07-29T12:48:12.671Z,24804.00
2022-07-29T12:53:19.947Z,25956.00
2022-07-29T12:58:27.166Z,24120.00
2022-07-29T13:03:35.899Z,23256.00
2022-07-29T13:08:41.589Z,21708.00
2022-07-29T13:13:48.841Z,21708.00
2022-07-29T13:18:56.067Z,23796.00
2022-07-29T13:24:03.307Z,23112.00
2022-07-29T13:29:10.631Z,17928.00
2022-07-29T13:34:17.846Z,17928.00
2022-07-29T13:39:25.094Z,17964.00
2022-07-29T13:44:32.351Z,16884.00
2022-07-29T13:49:39.595Z,18396.00
2022-07-29T13:54:46.804Z,17676.00
2022-07-29T13:59:54.653Z,17604.00
2022-07-29T14:05:06.235Z,14616.00
2022-07-29T14:10:08.445Z,13968.00
2022-07-29T14:15:15.626Z,360.00
2022-07-29T14:20:22.821Z,360.00
2022-07-29T14:25:30.066Z,288.00
2022-07-29T14:30:37.281Z,252.00
2022-07-29T14:35:44.550Z,252.00
2022-07-29T14:40:51.768Z,252.00
2022-07-29T14:46:04.042Z,252.00
2022-07-29T14:51:06.179Z,216.00
2022-07-29T14:56:35.450Z,180.00
2022-07-29T15:01:20.761Z,180.00
2022-07-29T15:06:27.849Z,252.00
2022-07-29T15:11:38.341Z,216.00
2022-07-29T15:16:44.007Z,216.00
2022-07-29T15:21:49.753Z,288.00
2022-07-29T15:26:56.904Z,360.00
2022-07-29T15:32:04.158Z,360.00
2022-07-29T15:37:11.319Z,324.00
2022-07-29T15:42:18.616Z,324.00
2022-07-29T15:47:25.858Z,360.00
2022-07-29T15:52:33.098Z,360.00
2022-07-29T15:57:40.341Z,288.00
2022-07-29T16:02:47.551Z,324.00
2022-07-29T16:07:54.821Z,360.00
2022-07-29T16:13:02.019Z,324.00
2022-07-29T16:18:09.302Z,288.00
2022-07-29T16:23:16.563Z,252.00
2022-07-29T16:28:23.808Z,180.00
2022-07-29T16:33:54.665Z,144.00
2022-07-29T16:38:38.323Z,144.00
2022-07-29T16:43:45.538Z,180.00
2022-07-29T16:48:52.973Z,10692.00
2022-07-29T16:54:00.092Z,10980.00
2022-07-29T16:59:07.331Z,11484.00
2022-07-29T17:04:14.577Z,11448.00
2022-07-29T17:09:21.843Z,9828.00
2022-07-29T17:14:29.132Z,8784.00
2022-07-29T17:19:36.435Z,8100.00
2022-07-29T17:24:43.669Z,7020.00
2022-07-29T17:29:50.837Z,5832.00
2022-07-29T17:34:58.018Z,5400.00
2022-07-29T17:40:05.268Z,4716.00
2022-07-29T17:45:12.549Z,3996.00
2022-07-29T17:50:19.745Z,3852.00
2022-07-29T17:55:26.938Z,3024.00
2022-07-29T18:00:34.147Z,2412.00
2022-07-29T18:05:41.386Z,2772.00
2022-07-29T18:10:48.621Z,3024.00
2022-07-29T18:16:00.226Z,3600.00
2022-07-29T18:21:03.123Z,4176.00
2022-07-29T18:26:10.544Z,4320.00
2022-07-29T18:31:17.872Z,4068.00
2022-07-29T18:36:24.987Z,13140.00
2022-07-29T18:41:32.172Z,12924.00
2022-07-29T18:46:39.412Z,12852.00
2022-07-29T18:51:46.533Z,12600.00
2022-07-29T18:56:53.679Z,12060.00
2022-07-29T19:02:01.099Z,12168.00
2022-07-29T19:07:08.135Z,12204.00
2022-07-29T19:12:15.368Z,12060.00
2022-07-29T19:17:22.538Z,11916.00
2022-07-29T19:22:29.748Z,11988.00
2022-07-29T19:27:36.996Z,12060.00
2022-07-29T19:32:44.190Z,12132.00
2022-07-29T19:37:51.424Z,11844.00
2022-07-29T19:42:58.690Z,12024.00
2022-07-29T19:48:05.905Z,11952.00
2022-07-29T19:53:13.137Z,12168.00
2022-07-29T19:58:22.443Z,12096.00
2022-07-29T20:03:27.685Z,12024.00
2022-07-29T20:08:34.938Z,12096.00
2022-07-29T20:13:42.141Z,12600.00
2022-07-29T20:18:49.359Z,12456.00
2022-07-29T20:23:56.616Z,12456.00
2022-07-29T20:29:03.894Z,12636.00
2022-07-29T20:34:11.146Z,12384.00
2022-07-29T20:39:18.331Z,12348.00
2022-07-29T20:44:25.550Z,12348.00
2022-07-29T20:49:32.817Z,12096.00
2022-07-29T20:54:40.069Z,12060.00
2022-07-29T20:59:47.279Z,12096.00
2022-07-29T21:04:54.486Z,12132.00
2022-07-29T21:10:01.758Z,12060.00
2022-07-29T21:15:08.883Z,12060.00
2022-07-29T21:20:16.079Z,12240.00
2022-07-29T21:25:23.252Z,11880.00
2022-07-29T21:30:30.474Z,12204.00
2022-07-29T21:36:06.180Z,12132.00
2022-07-29T21:40:44.851Z,12168.00
2022-07-29T21:45:52.097Z,12240.00
2022-07-29T21:50:59.838Z,12240.00
2022-07-29T21:56:06.499Z,12204.00
2022-07-29T22:01:13.797Z,12240.00
2022-07-29T22:06:20.941Z,12168.00
2022-07-29T22:11:28.179Z,12276.00
2022-07-29T22:16:35.422Z,12132.00
2022-07-29T22:21:42.640Z,12204.00
2022-07-29T22:26:49.869Z,12132.00
2022-07-29T22:31:57.165Z,12240.00
2022-07-29T22:37:04.414Z,12240.00
2022-07-29T22:42:11.749Z,12132.00
2022-07-29T22:47:18.859Z,12312.00
2022-07-29T22:52:26.025Z,12204.00
2022-07-29T22:57:33.250Z,12276.00
2022-07-29T23:02:40.560Z,12312.00
2022-07-29T23:07:47.734Z,12312.00
2022-07-29T23:12:54.914Z,12384.00
2022-07-29T23:18:02.076Z,12096.00
2022-07-29T23:23:09.265Z,12024.00
2022-07-29T23:28:16.467Z,12168.00
2022-07-29T23:33:23.717Z,12276.00
2022-07-29T23:38:30.922Z,12240.00
2022-07-29T23:43:38.231Z,11952.00
2022-07-29T23:48:45.520Z,12168.00
2022-07-29T23:53:53.587Z,12204.00
2022-07-29T23:59:00.005Z,12276.00
